Time;durP1;ratioP1;P1;durP2;ratioP2;P2;SDS_P1;SDS_P2;PMS_P1;PMS_P2;Temp;Humidity;BMP_temperature;BMP_pressure;BME280_temperature;BME280_humidity;BME280_pressure;Samples;Min_cycle;Max_cycle;Signal;HPM_P1;HPM_P2
2023/06/23 00:00:15;;;;;;;5.10;3.70;;;;;;;23.23;44.57;100505.70;110924;1222;98514;-62
2023/06/23 00:02:40;;;;;;;5.10;3.40;;;;;;;23.24;44.58;100503.23;110807;1208;137544;-62
2023/06/23 00:05:07;;;;;;;6.80;3.90;;;;;;;23.23;44.43;100495.86;110886;1210;97676;-62
2023/06/23 00:07:34;;;;;;;5.10;3.40;;;;;;;23.23;44.39;100487.48;110978;1226;137696;-62
2023/06/23 00:10:00;;;;;;;7.10;3.40;;;;;;;23.24;44.52;100482.88;111109;1222;98490;-62
2023/06/23 00:12:25;;;;;;;7.10;3.50;;;;;;;23.24;44.26;100478.30;110920;1222;138849;-62
2023/06/23 00:14:50;;;;;;;5.90;3.50;;;;;;;23.25;44.34;100470.15;111053;1208;97677;-62
2023/06/23 00:17:15;;;;;;;8.50;3.30;;;;;;;23.25;44.31;100463.41;111046;1206;97702;-62
2023/06/23 00:19:41;;;;;;;7.90;3.60;;;;;;;23.24;44.25;100463.16;110881;1209;139776;-62
2023/06/23 00:22:07;;;;;;;6.20;2.90;;;;;;;23.24;44.12;100466.47;110945;1210;96427;-62
2023/06/23 00:24:32;;;;;;;4.20;2.80;;;;;;;23.24;44.20;100468.45;110837;1206;138969;-62
2023/06/23 00:26:58;;;;;;;7.80;3.90;;;;;;;23.24;44.04;100469.55;111031;1206;98068;-62
2023/06/23 00:29:23;;;;;;;5.70;3.30;;;;;;;23.24;44.06;100470.98;111129;1209;97700;-62
2023/06/23 00:31:49;;;;;;;5.00;2.90;;;;;;;23.25;44.18;100483.71;110997;1208;138042;-62
2023/06/23 00:34:15;;;;;;;7.20;3.40;;;;;;;23.25;44.26;100493.18;111006;1206;97680;-62
2023/06/23 00:36:41;;;;;;;18.30;4.30;;;;;;;23.20;44.55;100503.28;110944;1208;137901;-63
2023/06/23 00:39:08;;;;;;;10.20;3.90;;;;;;;23.07;44.59;100508.09;111008;1206;97611;-62
2023/06/23 00:41:34;;;;;;;6.70;3.90;;;;;;;22.93;44.89;100516.16;111097;1206;97652;-62
2023/06/23 00:43:59;;;;;;;10.80;3.80;;;;;;;22.81;45.27;100519.91;110975;1208;139693;-62
2023/06/23 00:46:26;;;;;;;12.10;4.80;;;;;;;22.70;45.61;100522.92;111104;1208;97731;-62
2023/06/23 00:48:52;;;;;;;6.90;3.60;;;;;;;22.56;46.00;100532.33;110982;1221;139376;-62
2023/06/23 00:51:17;;;;;;;11.00;4.60;;;;;;;22.38;46.27;100544.96;111058;1207;97642;-62
2023/06/23 00:53:48;;;;;;;6.70;3.70;;;;;;;22.24;46.91;100556.76;111186;1220;96844;-62
2023/06/23 00:56:14;;;;;;;9.50;4.10;;;;;;;22.08;47.52;100557.54;110964;1208;137774;-62
2023/06/23 00:58:41;;;;;;;6.20;4.20;;;;;;;21.84;47.95;100560.87;111364;1205;97662;-62
2023/06/23 01:01:08;;;;;;;7.90;4.30;;;;;;;21.65;48.96;100558.77;111012;1208;137634;-62
2023/06/23 01:03:35;;;;;;;8.80;4.40;;;;;;;21.44;49.48;100552.95;111004;1222;97963;-62
2023/06/23 01:06:14;;;;;;;10.30;4.80;;;;;;;21.25;50.39;100549.55;111107;1208;97886;-62
2023/06/23 01:08:48;;;;;;;10.00;5.60;;;;;;;21.07;51.16;100544.39;110953;1209;138889;-62
2023/06/23 01:11:23;;;;;;;8.00;5.10;;;;;;;20.93;51.83;100537.23;110973;1221;98926;-62
2023/06/23 01:13:58;;;;;;;7.40;4.40;;;;;;;20.82;52.45;100536.60;111000;1219;138350;-62
2023/06/23 01:16:44;;;;;;;10.80;4.60;;;;;;;20.75;52.79;100537.24;111079;1208;98423;-62
2023/06/23 01:19:21;;;;;;;8.80;5.10;;;;;;;20.66;53.29;100540.20;110990;1206;138697;-62
2023/06/23 01:22:00;;;;;;;6.90;4.20;;;;;;;20.59;53.44;100540.35;111089;1206;97688;-63
2023/06/23 01:24:47;;;;;;;9.10;4.30;;;;;;;20.51;53.86;100532.85;110985;1206;139503;-63
2023/06/23 01:27:43;;;;;;;6.40;4.00;;;;;;;20.43;54.38;100527.55;111054;1209;104010;-63
2023/06/23 01:30:14;;;;;;;8.20;4.10;;;;;;;20.34;54.78;100524.13;111039;1206;97609;-62
2023/06/23 01:32:54;;;;;;;8.30;4.50;;;;;;;20.22;55.24;100526.01;110971;1209;138704;-62
2023/06/23 01:35:26;;;;;;;7.40;4.10;;;;;;;20.08;55.91;100522.73;111109;1219;98725;-62
2023/06/23 01:37:58;;;;;;;7.90;4.40;;;;;;;19.98;56.49;100517.98;110980;1208;138396;-62
2023/06/23 01:40:25;;;;;;;8.00;3.90;;;;;;;19.92;56.86;100520.97;110990;1206;103584;-62
2023/06/23 01:43:06;;;;;;;10.00;5.00;;;;;;;19.79;57.41;100522.96;110933;1212;140416;-62
2023/06/23 01:45:34;;;;;;;6.90;4.30;;;;;;;19.60;58.18;100521.35;111051;1209;99027;-62
2023/06/23 01:48:06;;;;;;;6.60;4.90;;;;;;;19.37;58.99;100521.36;111091;1209;97580;-63
2023/06/23 01:50:33;;;;;;;7.40;4.00;;;;;;;19.21;59.42;100520.71;110972;1209;138460;-63
2023/06/23 01:53:03;;;;;;;9.60;4.90;;;;;;;19.07;59.69;100524.95;111106;1208;98563;-63
2023/06/23 01:55:30;;;;;;;7.80;4.50;;;;;;;18.98;60.17;100527.14;111097;1207;139033;-63
2023/06/23 01:57:58;;;;;;;9.30;4.90;;;;;;;18.90;60.67;100517.05;111100;1213;97736;-63
2023/06/23 02:00:24;;;;;;;9.40;5.20;;;;;;;18.86;60.99;100510.30;111106;1221;138547;-64
2023/06/23 02:02:52;;;;;;;10.40;4.50;;;;;;;18.84;60.95;100513.05;110959;1211;97649;-64
2023/06/23 02:05:22;;;;;;;11.30;5.60;;;;;;;18.76;61.33;100512.56;111036;1206;96444;-64
2023/06/23 02:07:48;;;;;;;9.70;5.30;;;;;;;18.70;61.77;100516.45;111037;1208;138609;-64
2023/06/23 02:10:16;;;;;;;9.20;4.90;;;;;;;18.60;62.19;100520.02;111030;1208;97710;-64
2023/06/23 02:12:44;;;;;;;9.80;4.50;;;;;;;18.53;62.56;100526.84;110941;1206;139150;-64
2023/06/23 02:15:11;;;;;;;8.40;5.40;;;;;;;18.50;62.59;100530.33;111252;1206;97607;-62
2023/06/23 02:17:38;;;;;;;8.20;5.00;;;;;;;18.51;62.94;100529.92;111175;1206;102381;-62
2023/06/23 02:20:13;;;;;;;10.40;5.60;;;;;;;18.55;63.00;100536.31;110979;1205;139706;-64
2023/06/23 02:22:42;;;;;;;6.90;4.30;;;;;;;18.54;63.04;100542.89;111066;1207;98899;-62
2023/06/23 02:25:08;;;;;;;7.00;4.50;;;;;;;18.45;63.94;100555.88;110908;1209;138424;-62
2023/06/23 02:27:34;;;;;;;8.70;5.10;;;;;;;18.33;65.21;100570.19;111141;1209;97574;-64
2023/06/23 02:30:01;;;;;;;12.20;5.80;;;;;;;18.26;65.47;100581.63;111157;1209;97668;-64
2023/06/23 02:32:26;;;;;;;10.20;6.10;;;;;;;18.24;65.81;100595.02;111032;1206;140736;-64
2023/06/23 02:34:52;;;;;;;9.20;6.30;;;;;;;18.16;66.05;100597.02;111054;1208;97782;-64
2023/06/23 02:37:25;;;;;;;15.00;7.70;;;;;;;18.04;66.39;100596.55;110999;1206;138688;-64
2023/06/23 02:39:58;;;;;;;14.00;6.80;;;;;;;17.90;66.67;100574.77;111082;1209;102729;-64
2023/06/23 02:42:32;;;;;;;12.70;6.10;;;;;;;17.78;67.93;100549.42;111036;1222;140624;-64
2023/06/23 02:45:02;;;;;;;20.70;7.90;;;;;;;17.64;71.03;100539.11;111212;1208;97575;-64
2023/06/23 02:47:29;;;;;;;19.70;7.20;;;;;;;17.47;71.64;100540.02;111125;1206;97589;-64
2023/06/23 02:50:01;;;;;;;11.50;6.60;;;;;;;17.40;71.40;100553.85;110972;1208;140591;-64
2023/06/23 02:52:34;;;;;;;16.10;7.00;;;;;;;17.38;71.43;100568.88;111209;1206;111695;-63
2023/06/23 02:55:03;;;;;;;12.70;7.40;;;;;;;17.35;73.08;100590.75;110842;1208;139042;-64
2023/06/23 02:57:31;;;;;;;15.50;7.30;;;;;;;17.29;73.34;100615.75;111074;1222;99418;-64
2023/06/23 03:00:00;;;;;;;15.30;8.00;;;;;;;17.27;73.64;100691.61;111115;1208;97600;-64
2023/06/23 03:02:27;;;;;;;14.30;8.50;;;;;;;17.26;74.49;100790.06;111095;1208;139749;-64
2023/06/23 03:04:56;;;;;;;14.50;10.00;;;;;;;17.21;75.98;100846.38;111046;1210;96562;-64
2023/06/23 03:07:21;;;;;;;13.30;9.50;;;;;;;17.13;76.56;100827.41;111031;1208;139726;-66
2023/06/23 03:09:46;;;;;;;18.10;9.70;;;;;;;16.99;76.37;100759.41;111062;1208;97665;-65
2023/06/23 03:12:12;;;;;;;20.50;9.90;;;;;;;16.77;76.19;100694.66;111128;1219;97780;-66
2023/06/23 03:14:38;;;;;;;17.70;9.90;;;;;;;16.65;76.48;100641.02;111003;1209;139066;-66
2023/06/23 03:17:12;;;;;;;16.70;8.10;;;;;;;16.60;76.82;100586.31;111086;1209;97678;-66
2023/06/23 03:19:56;;;;;;;12.60;8.70;;;;;;;16.56;77.03;100542.16;111018;1206;140743;-65
2023/06/23 03:23:17;;;;;;;10.90;7.40;;;;;;;16.54;77.38;100490.02;111032;1223;97847;-64
2023/06/23 03:25:46;;;;;;;16.20;7.00;;;;;;;16.53;77.86;100430.40;110652;1209;140129;-64
2023/06/23 03:28:17;;;;;;;15.90;8.00;;;;;;;16.46;78.42;100394.48;111056;1206;111383;-63
2023/06/23 03:30:53;;;;;;;14.90;8.10;;;;;;;16.39;79.28;100369.16;111037;1220;138976;-64
2023/06/23 03:33:24;;;;;;;15.80;8.60;;;;;;;16.31;80.17;100339.45;111117;1211;107523;-64
2023/06/23 03:35:52;;;;;;;18.50;10.00;;;;;;;16.27;81.01;100317.08;111076;1206;97645;-64
2023/06/23 03:38:21;;;;;;;16.50;9.20;;;;;;;16.29;81.47;100301.20;110993;1210;139385;-64
2023/06/23 03:40:57;;;;;;;26.30;9.50;;;;;;;16.29;81.86;100282.80;111110;1209;111576;-64
2023/06/23 03:43:30;;;;;;;13.30;7.80;;;;;;;16.30;82.42;100263.97;110918;1208;140133;-64
2023/06/23 03:46:00;;;;;;;19.60;7.80;;;;;;;16.26;83.60;100251.45;110917;1210;106932;-64
2023/06/23 03:48:32;;;;;;;16.20;7.10;;;;;;;16.25;84.17;100237.51;110757;1210;140303;-66
2023/06/23 03:51:00;;;;;;;19.20;8.10;;;;;;;16.21;84.09;100243.16;110938;1213;97610;-64
2023/06/23 03:53:27;;;;;;;17.00;8.50;;;;;;;16.22;84.09;100259.73;110888;1210;97664;-64
2023/06/23 03:55:55;;;;;;;16.10;8.00;;;;;;;16.25;84.08;100262.72;110963;1206;139395;-64
2023/06/23 03:58:22;;;;;;;13.00;7.20;;;;;;;16.28;83.90;100266.35;110865;1208;108182;-64
2023/06/23 04:00:50;;;;;;;11.60;7.20;;;;;;;16.27;83.73;100265.83;110929;1222;139391;-64
2023/06/23 04:03:17;;;;;;;13.40;7.10;;;;;;;16.25;84.00;100251.94;111115;1208;97642;-64
2023/06/23 04:05:44;;;;;;;13.20;7.60;;;;;;;16.24;84.53;100252.86;111170;1208;97638;-64
2023/06/23 04:08:11;;;;;;;11.50;7.40;;;;;;;16.27;84.67;100269.09;111011;1225;138802;-64
2023/06/23 04:10:38;;;;;;;13.80;7.40;;;;;;;16.27;84.72;100282.98;111037;1205;99236;-64
2023/06/23 04:13:06;;;;;;;14.30;7.50;;;;;;;16.31;84.93;100288.97;111022;1205;138782;-64
2023/06/23 04:15:33;;;;;;;12.80;7.60;;;;;;;16.37;84.75;100292.17;111117;1206;97617;-64
2023/06/23 04:18:02;;;;;;;12.40;7.20;;;;;;;16.39;84.48;100292.73;111085;1208;98565;-64
2023/06/23 04:20:29;;;;;;;10.60;7.70;;;;;;;16.37;84.42;100298.63;111020;1206;139426;-64
2023/06/23 04:22:57;;;;;;;12.40;6.60;;;;;;;16.32;84.56;100298.14;111279;1206;97579;-64
2023/06/23 04:25:23;;;;;;;8.60;5.90;;;;;;;16.29;84.67;100299.62;111000;1206;140321;-64
2023/06/23 04:27:52;;;;;;;10.20;7.00;;;;;;;16.31;84.83;100315.11;111078;1209;97815;-64
2023/06/23 04:30:19;;;;;;;12.10;7.40;;;;;;;16.32;84.84;100322.14;111142;1208;97684;-64
2023/06/23 04:32:45;;;;;;;10.10;6.60;;;;;;;16.32;85.14;100326.81;110983;1206;140929;-64
2023/06/23 04:35:11;;;;;;;10.50;7.80;;;;;;;16.34;85.10;100340.85;110914;1208;97674;-64
2023/06/23 04:37:36;;;;;;;17.50;7.40;;;;;;;16.37;85.08;100343.02;110973;1208;139144;-64
2023/06/23 04:40:11;;;;;;;11.80;7.80;;;;;;;16.37;85.18;100333.45;111086;1221;97993;-64
2023/06/23 04:42:52;;;;;;;11.40;7.10;;;;;;;16.37;85.26;100329.48;111082;1208;139080;-64
2023/06/23 04:45:23;;;;;;;11.60;6.40;;;;;;;16.40;85.49;100339.57;111020;1206;108376;-66
2023/06/23 04:47:54;;;;;;;11.00;6.40;;;;;;;16.41;85.61;100335.65;111107;1208;97588;-66
2023/06/23 04:50:21;;;;;;;10.00;6.20;;;;;;;16.42;85.76;100335.75;110963;1206;138663;-67
2023/06/23 04:52:52;;;;;;;12.50;7.20;;;;;;;16.42;85.85;100344.64;111181;1206;99919;-66
2023/06/23 04:55:18;;;;;;;;;;;;;;;16.43;86.07;100347.95;111014;1206;139990;-64
2023/06/23 04:57:45;;;;;;;11.50;7.20;;;;;;;16.46;86.28;100360.52;111149;1206;97672;-66
2023/06/23 05:00:16;;;;;;;12.20;7.20;;;;;;;16.49;86.01;100363.38;111072;1208;97600;-66
2023/06/23 05:02:44;;;;;;;;;;;;;;;16.49;86.29;100364.83;111116;1208;138408;-66
2023/06/23 05:05:14;;;;;;;12.90;7.50;;;;;;;16.50;86.26;100366.02;111072;1209;111644;-67
2023/06/23 05:07:41;;;;;;;11.00;7.30;;;;;;;16.50;86.39;100372.16;111048;1209;140474;-66
2023/06/23 05:10:07;;;;;;;11.10;6.80;;;;;;;16.51;86.23;100372.45;111162;1208;97653;-67
2023/06/23 05:12:34;;;;;;;12.00;6.70;;;;;;;16.51;86.35;100371.51;110978;1222;138938;-67
2023/06/23 05:15:01;;;;;;;15.30;6.90;;;;;;;16.52;86.67;100365.88;111072;1209;97677;-66
2023/06/23 05:17:29;;;;;;;10.60;6.30;;;;;;;16.53;86.67;100353.72;110988;1206;97663;-67
2023/06/23 05:19:57;;;;;;;11.80;6.80;;;;;;;16.55;86.73;100352.86;110901;1209;139271;-67
2023/06/23 05:22:25;;;;;;;10.60;6.50;;;;;;;16.57;86.89;100358.50;111000;1207;97677;-65
2023/06/23 05:24:55;;;;;;;12.40;6.70;;;;;;;16.59;86.90;100360.52;110936;1211;138769;-66
2023/06/23 05:27:24;;;;;;;8.90;6.50;;;;;;;16.61;87.05;100366.36;110943;1223;97729;-66
2023/06/23 05:29:54;;;;;;;10.60;6.90;;;;;;;16.63;87.06;100364.05;111012;1211;110939;-66
2023/06/23 05:32:21;;;;;;;11.60;6.70;;;;;;;16.67;87.23;100368.29;110877;1206;139963;-66
2023/06/23 05:34:49;;;;;;;10.90;6.00;;;;;;;16.66;87.12;100380.64;111032;1222;108045;-67
2023/06/23 05:37:18;;;;;;;12.00;6.30;;;;;;;16.67;87.12;100384.52;110853;1211;139895;-67
2023/06/23 05:39:46;;;;;;;11.30;7.30;;;;;;;16.68;87.26;100382.45;110980;1208;98063;-67
2023/06/23 05:42:11;;;;;;;13.10;8.40;;;;;;;16.71;87.33;100377.15;111065;1206;111004;-67
2023/06/23 05:44:37;;;;;;;12.40;6.80;;;;;;;16.75;87.32;100368.40;111032;1206;139404;-67
2023/06/23 05:47:05;;;;;;;11.30;6.80;;;;;;;16.75;87.31;100366.23;111193;1208;97789;-67
2023/06/23 05:49:38;;;;;;;11.10;6.50;;;;;;;16.75;87.55;100365.17;110893;1206;138608;-67
2023/06/23 05:52:05;;;;;;;13.80;7.30;;;;;;;16.73;87.77;100362.95;111379;1206;102968;-62
2023/06/23 05:54:37;;;;;;;9.90;6.70;;;;;;;16.72;87.88;100361.23;110846;1205;141667;-61
2023/06/23 05:57:06;;;;;;;14.00;7.10;;;;;;;16.73;87.97;100358.63;111079;1215;107079;-63
2023/06/23 05:59:41;;;;;;;11.60;6.90;;;;;;;16.75;87.86;100366.42;111055;1221;100638;-64
2023/06/23 06:02:13;;;;;;;12.70;7.40;;;;;;;16.77;87.85;100370.80;110939;1209;138715;-64
2023/06/23 06:04:41;;;;;;;10.10;6.70;;;;;;;16.81;87.91;100376.43;111068;1209;111449;-63
2023/06/23 06:07:10;;;;;;;12.30;7.00;;;;;;;16.85;87.81;100382.27;110930;1207;139845;-64
2023/06/23 06:09:37;;;;;;;11.40;7.00;;;;;;;16.85;87.76;100388.08;110924;1212;107761;-61
2023/06/23 06:12:03;;;;;;;9.90;6.60;;;;;;;16.82;87.72;100394.55;110911;1212;98855;-62
2023/06/23 06:14:30;;;;;;;10.60;6.70;;;;;;;16.80;87.65;100398.33;110946;1209;140956;-62
2023/06/23 06:16:56;;;;;;;12.50;6.80;;;;;;;16.78;87.90;100404.23;111120;1205;97681;-62
2023/06/23 06:19:24;;;;;;;7.90;6.10;;;;;;;16.78;88.11;100406.09;111170;1208;140429;-63
2023/06/23 06:21:54;;;;;;;14.20;6.50;;;;;;;16.80;88.08;100405.59;111040;1209;97690;-63
2023/06/23 06:24:21;;;;;;;11.00;6.50;;;;;;;16.81;88.19;100410.19;111146;1222;96534;-63
2023/06/23 06:26:48;;;;;;;8.70;6.20;;;;;;;16.84;88.51;100407.06;111140;1207;101690;-63
2023/06/23 06:29:16;;;;;;;9.90;7.00;;;;;;;16.91;88.74;100402.05;111082;1207;97586;-64
2023/06/23 06:31:42;;;;;;;9.20;5.70;;;;;;;17.01;88.83;100405.84;111026;1209;138891;-64
2023/06/23 06:34:09;;;;;;;12.10;6.60;;;;;;;17.12;88.75;100396.71;111074;1209;97697;-64
2023/06/23 06:36:37;;;;;;;8.30;5.80;;;;;;;17.17;88.92;100383.83;110978;1206;139338;-64
2023/06/23 06:39:05;;;;;;;11.90;6.60;;;;;;;17.24;89.25;100379.03;110901;1208;97673;-62
2023/06/23 06:41:31;;;;;;;8.90;6.40;;;;;;;17.28;89.25;100375.84;110968;1210;97600;-64
2023/06/23 06:43:57;;;;;;;10.60;7.50;;;;;;;17.34;89.61;100379.67;110875;1210;139812;-64
2023/06/23 06:46:26;;;;;;;8.10;5.70;;;;;;;17.39;89.54;100377.11;110946;1219;97591;-62
2023/06/23 06:48:53;;;;;;;12.70;7.30;;;;;;;17.45;89.43;100372.92;110804;1223;138762;-62
2023/06/23 06:51:18;;;;;;;15.10;7.60;;;;;;;17.54;89.59;100370.23;110865;1210;97694;-70
2023/06/23 06:53:45;;;;;;;10.40;6.70;;;;;;;17.63;89.58;100370.77;110929;1210;96413;-68
2023/06/23 06:56:11;;;;;;;9.20;6.50;;;;;;;17.70;89.58;100373.84;110943;1208;138658;-68
2023/06/23 06:58:37;;;;;;;11.60;6.60;;;;;;;17.69;89.95;100365.80;110951;1211;103013;-67
2023/06/23 07:01:03;;;;;;;13.20;6.20;;;;;;;17.68;90.08;100370.02;110705;1210;138992;-67
2023/06/23 07:03:31;;;;;;;10.60;6.50;;;;;;;17.75;90.23;100373.86;110592;1210;97830;-67
2023/06/23 07:05:56;;;;;;;13.40;5.90;;;;;;;17.84;90.10;100376.00;110929;1208;97734;-68
2023/06/23 07:08:22;;;;;;;11.10;5.70;;;;;;;17.96;90.16;100382.69;110747;1212;139526;-68
2023/06/23 07:10:47;;;;;;;10.80;6.40;;;;;;;18.05;89.81;100385.23;110828;1219;97692;-67
2023/06/23 07:13:12;;;;;;;10.50;5.90;;;;;;;18.17;89.72;100388.77;110639;1208;138934;-67
2023/06/23 07:15:38;;;;;;;8.60;5.80;;;;;;;18.32;89.73;100394.98;110827;1211;96553;-67
2023/06/23 07:18:03;;;;;;;9.40;5.50;;;;;;;18.44;89.54;100396.04;110878;1213;99152;-68
2023/06/23 07:20:29;;;;;;;6.30;4.70;;;;;;;18.54;89.17;100394.34;110783;1211;139342;-68
2023/06/23 07:22:54;;;;;;;9.90;6.20;;;;;;;18.63;88.82;100392.34;110967;1212;97683;-68
2023/06/23 07:25:19;;;;;;;13.30;5.40;;;;;;;18.71;88.75;100400.79;110832;1209;138393;-68
2023/06/23 07:27:48;;;;;;;13.00;6.20;;;;;;;18.76;88.18;100398.52;111044;1212;97583;-67
2023/06/23 07:30:13;;;;;;;7.80;4.90;;;;;;;18.89;88.10;100392.20;111134;1206;101828;-68
2023/06/23 07:32:39;;;;;;;11.60;6.50;;;;;;;19.02;87.69;100391.32;110944;1221;139109;-68
2023/06/23 07:35:06;;;;;;;8.30;5.50;;;;;;;19.15;87.55;100401.98;111000;1206;98506;-67
2023/06/23 07:37:31;;;;;;;9.20;5.50;;;;;;;19.24;87.18;100408.19;110977;1209;138735;-66
2023/06/23 07:39:57;;;;;;;9.70;6.00;;;;;;;19.34;87.06;100413.25;110948;1211;97745;-67
2023/06/23 07:42:23;;;;;;;15.30;5.90;;;;;;;19.47;86.68;100407.15;111059;1208;140207;-67
2023/06/23 07:44:49;;;;;;;10.00;5.70;;;;;;;19.54;86.38;100399.83;111024;1208;97574;-67
2023/06/23 07:47:14;;;;;;;14.20;5.60;;;;;;;19.67;86.19;100403.27;110929;1210;97691;-67
2023/06/23 07:49:40;;;;;;;8.30;5.70;;;;;;;19.80;85.93;100411.77;110874;1211;140366;-66
2023/06/23 07:52:06;;;;;;;10.80;5.50;;;;;;;19.90;85.47;100418.02;110854;1210;97752;-67
2023/06/23 07:54:31;;;;;;;12.40;5.50;;;;;;;20.01;85.21;100421.20;111018;1223;139194;-66
2023/06/23 07:56:58;;;;;;;8.30;5.40;;;;;;;20.11;84.67;100418.52;111144;1208;97641;-68
2023/06/23 07:59:25;;;;;;;10.20;5.50;;;;;;;20.20;84.33;100414.61;111638;1209;97879;-68
2023/06/23 08:01:50;;;;;;;8.20;5.10;;;;;;;20.30;83.98;100419.37;111136;1210;138689;-68
2023/06/23 08:04:16;;;;;;;11.10;5.20;;;;;;;20.40;83.66;100419.60;111758;1206;98988;-66
2023/06/23 08:06:41;;;;;;;8.90;5.20;;;;;;;20.51;83.17;100422.52;111585;1207;138883;-66
2023/06/23 08:09:07;;;;;;;11.00;5.70;;;;;;;20.62;82.80;100426.42;111482;1209;97700;-66
2023/06/23 08:11:32;;;;;;;8.00;4.50;;;;;;;20.77;82.35;100425.02;111141;1209;97750;-65
2023/06/23 08:14:00;;;;;;;10.90;4.80;;;;;;;20.82;81.47;100423.27;110810;1218;138424;-66
2023/06/23 08:16:25;;;;;;;9.70;4.90;;;;;;;20.89;81.40;100427.77;111203;1212;97693;-65
2023/06/23 08:18:51;;;;;;;6.50;5.10;;;;;;;21.02;81.12;100438.14;111034;1219;138897;-68
2023/06/23 08:21:17;;;;;;;12.50;5.00;;;;;;;21.10;80.52;100443.84;111602;1206;97694;-67
2023/06/23 08:23:46;;;;;;;8.30;5.10;;;;;;;21.20;80.28;100439.64;111902;1205;97658;-67
2023/06/23 08:26:12;;;;;;;8.70;5.00;;;;;;;21.33;79.83;100439.95;111832;1208;139184;-66
2023/06/23 08:28:37;;;;;;;7.10;5.00;;;;;;;21.36;78.95;100445.10;111170;1206;97674;-66
2023/06/23 08:31:02;;;;;;;6.90;4.70;;;;;;;21.33;78.15;100447.19;111117;1208;138812;-66
2023/06/23 08:33:28;;;;;;;7.00;5.10;;;;;;;21.38;78.06;100452.33;111132;1209;97619;-66
2023/06/23 08:35:53;;;;;;;7.80;5.20;;;;;;;21.61;78.16;100451.70;111295;1219;97711;-68
2023/06/23 08:38:19;;;;;;;8.40;4.90;;;;;;;21.88;78.25;100446.23;111453;1209;139879;-70
2023/06/23 08:40:47;;;;;;;11.30;5.50;;;;;;;22.11;77.53;100450.27;111645;1206;97587;-68
2023/06/23 08:43:12;;;;;;;8.20;4.60;;;;;;;22.18;76.99;100452.89;111461;1209;141395;-67
2023/06/23 08:45:41;;;;;;;6.10;4.50;;;;;;;22.23;76.62;100459.01;111706;1207;97604;-70
2023/06/23 08:48:08;;;;;;;6.40;4.30;;;;;;;22.28;76.13;100464.66;111593;1208;102445;-65
2023/06/23 08:50:35;;;;;;;9.40;5.10;;;;;;;22.32;75.75;100467.91;111058;1211;138761;-65
2023/06/23 08:53:00;;;;;;;8.60;4.70;;;;;;;22.28;74.72;100463.95;111229;1207;97728;-64
2023/06/23 08:55:27;;;;;;;6.00;4.60;;;;;;;22.26;74.38;100462.11;111133;1208;138564;-65
2023/06/23 08:57:52;;;;;;;9.00;4.50;;;;;;;22.19;73.59;100462.42;111200;1208;102974;-67
2023/06/23 09:00:18;;;;;;;7.70;4.90;;;;;;;22.15;73.44;100459.53;111247;1209;96469;-65
2023/06/23 09:02:44;;;;;;;9.30;5.30;;;;;;;22.21;73.36;100459.15;111221;1208;139833;-65
2023/06/23 09:05:09;;;;;;;8.30;4.30;;;;;;;22.22;72.79;100461.02;111177;1208;98075;-68
2023/06/23 09:07:35;;;;;;;5.20;4.20;;;;;;;22.17;72.63;100468.67;111093;1218;143256;-66
2023/06/23 09:10:00;;;;;;;10.60;4.60;;;;;;;22.20;72.32;100475.45;111236;1208;97694;-66
2023/06/23 09:12:26;;;;;;;7.10;4.80;;;;;;;22.24;72.44;100479.81;111041;1217;140665;-67
2023/06/23 09:14:52;;;;;;;6.20;4.70;;;;;;;22.28;71.98;100480.13;111307;1207;97678;-67
2023/06/23 09:17:19;;;;;;;9.50;5.10;;;;;;;22.29;71.84;100485.55;111249;1206;97599;-66
2023/06/23 09:19:49;;;;;;;8.60;4.70;;;;;;;22.21;71.16;100489.77;111146;1209;138496;-66
2023/06/23 09:22:18;;;;;;;7.10;4.20;;;;;;;22.18;71.27;100495.51;111240;1213;98041;-67
2023/06/23 09:24:44;;;;;;;10.00;4.70;;;;;;;22.19;70.88;100493.81;111273;1208;140410;-66
2023/06/23 09:27:10;;;;;;;10.60;5.80;;;;;;;22.18;71.11;100494.02;111225;1208;97630;-67
2023/06/23 09:29:38;;;;;;;6.00;5.00;;;;;;;22.25;70.68;100494.27;111273;1212;97643;-66
2023/06/23 09:32:04;;;;;;;8.90;4.80;;;;;;;22.33;71.00;100497.20;111060;1209;138800;-67
2023/06/23 09:34:37;;;;;;;6.70;4.60;;;;;;;22.50;70.84;100500.50;111171;1206;97641;-66
2023/06/23 09:37:13;;;;;;;6.90;5.10;;;;;;;22.55;70.17;100502.94;111157;1206;140176;-66
2023/06/23 09:39:41;;;;;;;6.60;4.60;;;;;;;22.57;70.17;100507.80;111178;1209;98281;-66
2023/06/23 09:42:12;;;;;;;9.70;4.50;;;;;;;22.64;69.14;100507.52;111142;1205;97678;-66
2023/06/23 09:44:39;;;;;;;8.20;4.80;;;;;;;22.62;69.17;100510.09;111050;1209;138553;-66
2023/06/23 09:47:06;;;;;;;9.10;5.00;;;;;;;22.73;69.16;100509.14;111191;1209;97751;-67
2023/06/23 09:49:43;;;;;;;10.90;4.90;;;;;;;22.88;69.26;100508.84;111094;1208;140072;-66
2023/06/23 09:52:11;;;;;;;10.00;5.00;;;;;;;23.00;68.92;100506.41;111146;1220;97939;-66
2023/06/23 09:54:41;;;;;;;7.80;4.90;;;;;;;22.89;68.44;100497.94;111125;1218;139509;-66
2023/06/23 09:57:12;;;;;;;8.60;4.90;;;;;;;22.80;68.32;100499.23;111136;1205;97696;-66
2023/06/23 09:59:39;;;;;;;8.60;5.40;;;;;;;22.85;68.25;100500.40;111527;1209;97582;-68
2023/06/23 10:02:07;;;;;;;8.00;4.60;;;;;;;23.01;68.42;100503.54;111027;1209;138573;-66
2023/06/23 10:04:32;;;;;;;8.30;5.40;;;;;;;23.20;68.08;100507.30;111164;1205;97578;-67
2023/06/23 10:06:58;;;;;;;8.60;4.80;;;;;;;23.19;67.71;100509.48;111186;1212;139188;-69
2023/06/23 10:09:25;;;;;;;8.70;4.90;;;;;;;23.18;67.63;100509.94;111651;1212;97696;-67
2023/06/23 10:11:51;;;;;;;7.10;4.90;;;;;;;23.20;67.65;100510.59;111637;1208;102396;-67
2023/06/23 10:14:18;;;;;;;7.90;5.00;;;;;;;23.10;66.89;100508.88;111550;1208;139167;-67
2023/06/23 10:16:44;;;;;;;7.80;4.90;;;;;;;22.95;66.90;100514.37;111447;1208;97636;-67
2023/06/23 10:19:11;;;;;;;8.20;5.20;;;;;;;22.94;67.05;100515.70;111111;1208;138322;-65
2023/06/23 10:21:36;;;;;;;5.50;4.40;;;;;;;23.04;67.32;100522.23;111185;1208;103077;-65
2023/06/23 10:24:05;;;;;;;12.90;5.80;;;;;;;23.04;66.56;100524.73;111213;1218;98259;-65
2023/06/23 10:26:33;;;;;;;10.40;5.70;;;;;;;22.90;66.49;100534.52;111102;1206;138055;-65
2023/06/23 10:29:04;;;;;;;9.80;5.30;;;;;;;22.77;66.59;100536.09;111176;1208;97758;-65
2023/06/23 10:31:31;;;;;;;9.20;5.60;;;;;;;22.71;66.62;100542.54;111049;1217;139043;-66
2023/06/23 10:34:00;;;;;;;5.30;4.50;;;;;;;22.76;66.53;100547.91;111275;1206;98989;-66
2023/06/23 10:36:30;;;;;;;7.80;4.80;;;;;;;22.63;66.13;100548.22;111166;1218;138830;-66
2023/06/23 10:39:00;;;;;;;8.20;5.60;;;;;;;22.58;66.59;100551.59;111151;1209;99788;-66
2023/06/23 10:41:26;;;;;;;12.50;6.50;;;;;;;22.54;66.45;100554.18;111356;1208;97668;-66
2023/06/23 10:43:55;;;;;;;9.70;5.50;;;;;;;22.59;66.74;100558.43;110975;1209;138536;-67
2023/06/23 10:46:24;;;;;;;9.60;5.10;;;;;;;22.66;66.71;100557.73;111072;1206;102989;-66
2023/06/23 10:48:51;;;;;;;12.20;5.90;;;;;;;22.75;66.54;100555.85;110828;1206;139712;-67
2023/06/23 10:51:16;;;;;;;9.20;5.80;;;;;;;22.77;66.57;100556.85;110729;1208;97667;-66
2023/06/23 10:53:55;;;;;;;7.30;4.70;;;;;;;22.87;66.61;100561.58;110857;1208;96468;-66
2023/06/23 10:56:32;;;;;;;6.30;5.60;;;;;;;22.97;66.29;100567.17;110774;1212;139583;-66
2023/06/23 10:58:58;;;;;;;10.30;5.40;;;;;;;22.82;65.98;100560.80;111019;1206;97834;-66
2023/06/23 11:01:24;;;;;;;7.40;5.80;;;;;;;22.78;66.20;100565.52;110781;1208;138571;-66
2023/06/23 11:03:54;;;;;;;10.70;6.00;;;;;;;22.93;66.38;100567.92;110912;1211;98928;-65
2023/06/23 11:06:28;;;;;;;9.00;5.30;;;;;;;23.16;66.74;100571.71;110948;1208;103164;-65
2023/06/23 11:08:55;;;;;;;8.20;6.40;;;;;;;23.39;66.38;100574.38;110893;1212;97725;-65
2023/06/23 11:11:33;;;;;;;9.10;5.80;;;;;;;23.41;65.62;100568.66;110832;1210;98986;-65
2023/06/23 11:13:58;;;;;;;8.30;5.70;;;;;;;23.25;65.16;100561.14;110783;1211;138457;-66